sensor_id;sensor_type;location;lat;lon;timestamp;temperature;humidity
43679;DHT22;29279;50.858;4.392;2022-12-19T00:03:45;5.00;99.90
43679;DHT22;29279;50.858;4.392;2022-12-19T00:06:11;5.00;99.90
43679;DHT22;29279;50.858;4.392;2022-12-19T00:08:40;5.00;99.90
43679;DHT22;29279;50.858;4.392;2022-12-19T00:11:06;5.00;99.90
43679;DHT22;29279;50.858;4.392;2022-12-19T00:13:32;5.20;99.90
43679;DHT22;29279;50.858;4.392;2022-12-19T00:16:12;5.20;99.90
43679;DHT22;29279;50.858;4.392;2022-12-19T00:22:13;5.20;99.90
43679;DHT22;29279;50.858;4.392;2022-12-19T00:24:42;5.30;99.90
43679;DHT22;29279;50.858;4.392;2022-12-19T00:27:11;5.30;99.90
43679;DHT22;29279;50.858;4.392;2022-12-19T00:29:43;5.40;99.90
43679;DHT22;29279;50.858;4.392;2022-12-19T00:32:08;5.30;99.90
43679;DHT22;29279;50.858;4.392;2022-12-19T00:34:34;5.40;99.90
43679;DHT22;29279;50.858;4.392;2022-12-19T00:37:00;5.40;99.90
43679;DHT22;29279;50.858;4.392;2022-12-19T00:39:25;5.50;99.90
43679;DHT22;29279;50.858;4.392;2022-12-19T00:41:51;5.40;99.90
43679;DHT22;29279;50.858;4.392;2022-12-19T00:44:17;5.50;99.90
43679;DHT22;29279;50.858;4.392;2022-12-19T00:46:42;5.60;99.90
43679;DHT22;29279;50.858;4.392;2022-12-19T00:49:08;5.50;99.90
43679;DHT22;29279;50.858;4.392;2022-12-19T00:51:35;5.50;99.90
43679;DHT22;29279;50.858;4.392;2022-12-19T00:54:05;5.70;99.90
43679;DHT22;29279;50.858;4.392;2022-12-19T00:59:44;5.80;99.90
43679;DHT22;29279;50.858;4.392;2022-12-19T01:02:10;5.70;99.90
43679;DHT22;29279;50.858;4.392;2022-12-19T01:04:36;5.70;99.90
43679;DHT22;29279;50.858;4.392;2022-12-19T01:07:01;5.60;99.90
43679;DHT22;29279;50.858;4.392;2022-12-19T01:09:30;5.80;99.90
43679;DHT22;29279;50.858;4.392;2022-12-19T01:11:56;5.80;99.90
43679;DHT22;29279;50.858;4.392;2022-12-19T01:14:41;5.70;99.90
43679;DHT22;29279;50.858;4.392;2022-12-19T01:17:07;5.90;99.90
43679;DHT22;29279;50.858;4.392;2022-12-19T01:19:32;5.90;99.90
43679;DHT22;29279;50.858;4.392;2022-12-19T01:21:58;5.80;99.90
43679;DHT22;29279;50.858;4.392;2022-12-19T01:24:24;5.90;99.90
43679;DHT22;29279;50.858;4.392;2022-12-19T01:26:49;6.00;99.90
43679;DHT22;29279;50.858;4.392;2022-12-19T01:29:15;6.20;99.90
43679;DHT22;29279;50.858;4.392;2022-12-19T01:34:39;6.20;99.90
43679;DHT22;29279;50.858;4.392;2022-12-19T01:37:05;6.20;99.90
43679;DHT22;29279;50.858;4.392;2022-12-19T01:39:39;6.30;99.90
43679;DHT22;29279;50.858;4.392;2022-12-19T01:42:20;6.30;99.90
43679;DHT22;29279;50.858;4.392;2022-12-19T01:47:50;6.30;99.90
43679;DHT22;29279;50.858;4.392;2022-12-19T01:51:04;6.40;99.90
43679;DHT22;29279;50.858;4.392;2022-12-19T01:53:25;6.50;99.90
43679;DHT22;29279;50.858;4.392;2022-12-19T01:55:53;6.60;99.90
43679;DHT22;29279;50.858;4.392;2022-12-19T01:58:19;6.40;99.90
43679;DHT22;29279;50.858;4.392;2022-12-19T02:00:46;6.50;99.90
43679;DHT22;29279;50.858;4.392;2022-12-19T02:03:27;6.50;99.90
43679;DHT22;29279;50.858;4.392;2022-12-19T02:05:54;6.60;99.90
43679;DHT22;29279;50.858;4.392;2022-12-19T02:08:22;6.70;99.90
43679;DHT22;29279;50.858;4.392;2022-12-19T02:10:49;6.70;99.90
43679;DHT22;29279;50.858;4.392;2022-12-19T02:13:15;6.80;99.90
43679;DHT22;29279;50.858;4.392;2022-12-19T02:16:01;6.80;99.90
43679;DHT22;29279;50.858;4.392;2022-12-19T02:18:56;6.80;99.90
43679;DHT22;29279;50.858;4.392;2022-12-19T02:33:04;7.00;99.90
43679;DHT22;29279;50.858;4.392;2022-12-19T02:38:28;7.10;99.90
43679;DHT22;29279;50.858;4.392;2022-12-19T02:43:35;7.00;99.90
43679;DHT22;29279;50.858;4.392;2022-12-19T02:46:04;7.00;99.90
43679;DHT22;29279;50.858;4.392;2022-12-19T02:48:30;7.00;99.90
43679;DHT22;29279;50.858;4.392;2022-12-19T02:50:56;7.00;99.90
43679;DHT22;29279;50.858;4.392;2022-12-19T02:53:22;7.10;99.90
43679;DHT22;29279;50.858;4.392;2022-12-19T03:11:56;7.10;99.90
43679;DHT22;29279;50.858;4.392;2022-12-19T03:14:25;7.10;99.90
43679;DHT22;29279;50.858;4.392;2022-12-19T03:16:52;7.10;99.90
43679;DHT22;29279;50.858;4.392;2022-12-19T03:19:18;7.10;99.90
43679;DHT22;29279;50.858;4.392;2022-12-19T03:21:46;7.20;99.90
43679;DHT22;29279;50.858;4.392;2022-12-19T03:24:14;7.20;99.90
43679;DHT22;29279;50.858;4.392;2022-12-19T03:27:03;7.20;99.90
43679;DHT22;29279;50.858;4.392;2022-12-19T03:29:41;7.20;99.90
43679;DHT22;29279;50.858;4.392;2022-12-19T03:32:28;7.20;99.90
43679;DHT22;29279;50.858;4.392;2022-12-19T03:35:24;7.20;99.90
43679;DHT22;29279;50.858;4.392;2022-12-19T03:37:54;7.20;99.90
43679;DHT22;29279;50.858;4.392;2022-12-19T03:40:24;7.20;99.90
43679;DHT22;29279;50.858;4.392;2022-12-19T03:42:56;7.20;99.90
43679;DHT22;29279;50.858;4.392;2022-12-19T03:56:33;7.40;99.90
43679;DHT22;29279;50.858;4.392;2022-12-19T04:01:49;7.40;99.90
43679;DHT22;29279;50.858;4.392;2022-12-19T04:04:16;7.30;99.90
43679;DHT22;29279;50.858;4.392;2022-12-19T04:06:43;7.40;99.90
43679;DHT22;29279;50.858;4.392;2022-12-19T04:09:10;7.40;99.90
43679;DHT22;29279;50.858;4.392;2022-12-19T04:11:46;7.40;99.90
43679;DHT22;29279;50.858;4.392;2022-12-19T04:14:19;7.50;99.90
43679;DHT22;29279;50.858;4.392;2022-12-19T04:16:56;7.50;99.90
43679;DHT22;29279;50.858;4.392;2022-12-19T04:19:33;7.60;99.90
43679;DHT22;29279;50.858;4.392;2022-12-19T04:22:29;7.70;99.90
43679;DHT22;29279;50.858;4.392;2022-12-19T04:24:58;7.60;99.90
43679;DHT22;29279;50.858;4.392;2022-12-19T04:27:26;7.60;99.90
43679;DHT22;29279;50.858;4.392;2022-12-19T04:29:55;7.60;99.90
43679;DHT22;29279;50.858;4.392;2022-12-19T04:32:22;7.60;99.90
43679;DHT22;29279;50.858;4.392;2022-12-19T04:34:49;7.80;99.90
43679;DHT22;29279;50.858;4.392;2022-12-19T04:37:14;7.80;99.90
43679;DHT22;29279;50.858;4.392;2022-12-19T04:39:41;7.80;99.90
43679;DHT22;29279;50.858;4.392;2022-12-19T04:42:06;7.80;99.90
43679;DHT22;29279;50.858;4.392;2022-12-19T04:44:32;7.80;99.90
43679;DHT22;29279;50.858;4.392;2022-12-19T04:46:58;7.80;99.90
43679;DHT22;29279;50.858;4.392;2022-12-19T04:49:23;7.80;99.90
43679;DHT22;29279;50.858;4.392;2022-12-19T04:51:49;7.80;99.90
43679;DHT22;29279;50.858;4.392;2022-12-19T04:54:15;7.80;99.90
43679;DHT22;29279;50.858;4.392;2022-12-19T04:56:41;7.90;99.90
43679;DHT22;29279;50.858;4.392;2022-12-19T04:59:06;7.80;99.90
43679;DHT22;29279;50.858;4.392;2022-12-19T05:01:32;7.80;99.90
43679;DHT22;29279;50.858;4.392;2022-12-19T05:03:58;7.80;99.90
43679;DHT22;29279;50.858;4.392;2022-12-19T05:06:23;7.80;99.90
43679;DHT22;29279;50.858;4.392;2022-12-19T05:08:50;7.90;99.90
43679;DHT22;29279;50.858;4.392;2022-12-19T05:11:16;7.90;99.90
43679;DHT22;29279;50.858;4.392;2022-12-19T05:13:42;7.90;99.90
43679;DHT22;29279;50.858;4.392;2022-12-19T05:16:10;8.00;99.90
43679;DHT22;29279;50.858;4.392;2022-12-19T05:18:37;8.10;99.90
43679;DHT22;29279;50.858;4.392;2022-12-19T05:21:03;8.00;99.90
43679;DHT22;29279;50.858;4.392;2022-12-19T05:23:32;8.00;99.90
43679;DHT22;29279;50.858;4.392;2022-12-19T05:25:59;8.10;99.90
43679;DHT22;29279;50.858;4.392;2022-12-19T05:28:25;8.10;99.90
43679;DHT22;29279;50.858;4.392;2022-12-19T05:30:51;8.10;99.90
43679;DHT22;29279;50.858;4.392;2022-12-19T05:33:17;8.20;99.90
43679;DHT22;29279;50.858;4.392;2022-12-19T05:35:42;8.10;99.90
43679;DHT22;29279;50.858;4.392;2022-12-19T05:38:08;8.20;99.90
43679;DHT22;29279;50.858;4.392;2022-12-19T05:40:34;8.20;99.90
43679;DHT22;29279;50.858;4.392;2022-12-19T05:43:00;8.20;99.90
43679;DHT22;29279;50.858;4.392;2022-12-19T05:45:26;8.20;99.90
43679;DHT22;29279;50.858;4.392;2022-12-19T05:47:51;8.30;99.90
43679;DHT22;29279;50.858;4.392;2022-12-19T05:50:17;8.20;99.90
43679;DHT22;29279;50.858;4.392;2022-12-19T05:52:43;8.40;99.90
43679;DHT22;29279;50.858;4.392;2022-12-19T05:55:09;8.30;99.90
43679;DHT22;29279;50.858;4.392;2022-12-19T05:57:35;8.30;99.90
43679;DHT22;29279;50.858;4.392;2022-12-19T06:00:02;8.30;99.90
43679;DHT22;29279;50.858;4.392;2022-12-19T06:02:31;8.30;99.90
43679;DHT22;29279;50.858;4.392;2022-12-19T06:04:57;8.30;99.90
43679;DHT22;29279;50.858;4.392;2022-12-19T06:07:23;8.40;99.90
43679;DHT22;29279;50.858;4.392;2022-12-19T06:09:49;8.40;99.90
43679;DHT22;29279;50.858;4.392;2022-12-19T06:12:14;8.30;99.90
43679;DHT22;29279;50.858;4.392;2022-12-19T06:14:40;8.50;99.90
43679;DHT22;29279;50.858;4.392;2022-12-19T06:17:06;8.40;99.90
43679;DHT22;29279;50.858;4.392;2022-12-19T06:19:31;8.40;99.90
43679;DHT22;29279;50.858;4.392;2022-12-19T06:21:57;8.40;99.90
43679;DHT22;29279;50.858;4.392;2022-12-19T06:24:24;8.40;99.90
43679;DHT22;29279;50.858;4.392;2022-12-19T06:26:49;8.40;99.90
43679;DHT22;29279;50.858;4.392;2022-12-19T06:29:15;8.50;99.90
43679;DHT22;29279;50.858;4.392;2022-12-19T06:31:41;8.40;99.90
43679;DHT22;29279;50.858;4.392;2022-12-19T06:34:09;8.50;99.90
43679;DHT22;29279;50.858;4.392;2022-12-19T06:36:35;8.40;99.90
43679;DHT22;29279;50.858;4.392;2022-12-19T06:39:01;8.50;99.90
43679;DHT22;29279;50.858;4.392;2022-12-19T06:41:27;8.40;99.90
43679;DHT22;29279;50.858;4.392;2022-12-19T06:44:14;8.50;99.90
43679;DHT22;29279;50.858;4.392;2022-12-19T06:46:40;8.40;99.90
43679;DHT22;29279;50.858;4.392;2022-12-19T06:49:07;8.30;99.90
43679;DHT22;29279;50.858;4.392;2022-12-19T06:51:33;8.30;99.90
43679;DHT22;29279;50.858;4.392;2022-12-19T06:53:59;8.60;99.90
43679;DHT22;29279;50.858;4.392;2022-12-19T06:56:25;8.60;99.90
43679;DHT22;29279;50.858;4.392;2022-12-19T06:58:51;8.60;99.90
43679;DHT22;29279;50.858;4.392;2022-12-19T07:04:12;8.80;99.90
43679;DHT22;29279;50.858;4.392;2022-12-19T07:06:39;9.00;99.90
43679;DHT22;29279;50.858;4.392;2022-12-19T07:09:05;8.90;99.90
43679;DHT22;29279;50.858;4.392;2022-12-19T07:11:31;8.90;99.90
43679;DHT22;29279;50.858;4.392;2022-12-19T07:13:56;8.90;99.90
43679;DHT22;29279;50.858;4.392;2022-12-19T07:16:23;8.80;99.90
43679;DHT22;29279;50.858;4.392;2022-12-19T07:18:49;8.90;99.90
43679;DHT22;29279;50.858;4.392;2022-12-19T07:21:15;8.90;99.90
43679;DHT22;29279;50.858;4.392;2022-12-19T07:23:41;8.80;99.90
43679;DHT22;29279;50.858;4.392;2022-12-19T07:26:07;8.80;99.90
43679;DHT22;29279;50.858;4.392;2022-12-19T07:28:33;8.80;99.90
43679;DHT22;29279;50.858;4.392;2022-12-19T07:30:59;8.90;99.90
43679;DHT22;29279;50.858;4.392;2022-12-19T07:33:25;8.70;99.90
43679;DHT22;29279;50.858;4.392;2022-12-19T07:35:51;8.70;99.90
43679;DHT22;29279;50.858;4.392;2022-12-19T07:38:16;8.70;99.90
43679;DHT22;29279;50.858;4.392;2022-12-19T07:40:42;8.70;99.90
43679;DHT22;29279;50.858;4.392;2022-12-19T07:43:08;8.60;99.90
43679;DHT22;29279;50.858;4.392;2022-12-19T07:45:36;8.60;99.90
43679;DHT22;29279;50.858;4.392;2022-12-19T07:48:03;8.60;99.90
43679;DHT22;29279;50.858;4.392;2022-12-19T07:50:29;8.70;99.90
43679;DHT22;29279;50.858;4.392;2022-12-19T07:52:57;8.60;99.90
43679;DHT22;29279;50.858;4.392;2022-12-19T07:55:22;8.70;99.90
43679;DHT22;29279;50.858;4.392;2022-12-19T07:57:48;8.80;99.90
43679;DHT22;29279;50.858;4.392;2022-12-19T08:00:14;8.80;99.90
43679;DHT22;29279;50.858;4.392;2022-12-19T08:02:40;8.80;99.90
43679;DHT22;29279;50.858;4.392;2022-12-19T08:05:06;8.80;99.90
43679;DHT22;29279;50.858;4.392;2022-12-19T08:07:31;8.90;99.90
43679;DHT22;29279;50.858;4.392;2022-12-19T08:09:57;8.90;99.90
43679;DHT22;29279;50.858;4.392;2022-12-19T08:12:23;8.90;99.90
43679;DHT22;29279;50.858;4.392;2022-12-19T08:14:49;8.80;99.90
43679;DHT22;29279;50.858;4.392;2022-12-19T08:17:15;8.90;99.90
43679;DHT22;29279;50.858;4.392;2022-12-19T08:19:40;9.00;99.90
43679;DHT22;29279;50.858;4.392;2022-12-19T08:22:06;9.00;99.90
43679;DHT22;29279;50.858;4.392;2022-12-19T08:24:32;9.10;99.90
43679;DHT22;29279;50.858;4.392;2022-12-19T08:26:57;9.00;99.90
43679;DHT22;29279;50.858;4.392;2022-12-19T08:29:23;9.00;99.90
43679;DHT22;29279;50.858;4.392;2022-12-19T08:31:49;8.90;99.90
43679;DHT22;29279;50.858;4.392;2022-12-19T08:34:15;8.90;99.90
43679;DHT22;29279;50.858;4.392;2022-12-19T08:36:41;9.00;99.90
43679;DHT22;29279;50.858;4.392;2022-12-19T08:39:06;9.00;99.90
43679;DHT22;29279;50.858;4.392;2022-12-19T08:41:32;9.00;99.90
43679;DHT22;29279;50.858;4.392;2022-12-19T08:43:58;9.10;99.90
43679;DHT22;29279;50.858;4.392;2022-12-19T08:46:25;9.10;99.90
43679;DHT22;29279;50.858;4.392;2022-12-19T08:48:51;9.20;99.90
43679;DHT22;29279;50.858;4.392;2022-12-19T08:51:18;9.30;99.90
43679;DHT22;29279;50.858;4.392;2022-12-19T08:53:45;9.30;99.90
43679;DHT22;29279;50.858;4.392;2022-12-19T08:56:19;9.40;99.90
43679;DHT22;29279;50.858;4.392;2022-12-19T08:58:45;9.50;99.90
43679;DHT22;29279;50.858;4.392;2022-12-19T09:01:16;9.50;99.90
43679;DHT22;29279;50.858;4.392;2022-12-19T09:03:44;9.50;99.90
43679;DHT22;29279;50.858;4.392;2022-12-19T09:06:11;9.40;99.90
43679;DHT22;29279;50.858;4.392;2022-12-19T09:08:38;9.30;99.90
43679;DHT22;29279;50.858;4.392;2022-12-19T09:11:13;9.30;99.90
43679;DHT22;29279;50.858;4.392;2022-12-19T09:13:40;9.30;99.90
43679;DHT22;29279;50.858;4.392;2022-12-19T09:18:36;9.40;99.90
43679;DHT22;29279;50.858;4.392;2022-12-19T09:21:02;9.40;99.90
43679;DHT22;29279;50.858;4.392;2022-12-19T09:23:29;9.40;99.90
43679;DHT22;29279;50.858;4.392;2022-12-19T09:26:03;9.30;99.90
43679;DHT22;29279;50.858;4.392;2022-12-19T09:28:29;9.30;99.90
43679;DHT22;29279;50.858;4.392;2022-12-19T09:30:56;9.20;99.90
43679;DHT22;29279;50.858;4.392;2022-12-19T09:33:22;9.10;99.90
43679;DHT22;29279;50.858;4.392;2022-12-19T09:35:50;9.10;99.90
43679;DHT22;29279;50.858;4.392;2022-12-19T09:38:16;9.10;99.90
43679;DHT22;29279;50.858;4.392;2022-12-19T09:41:08;9.10;99.90
43679;DHT22;29279;50.858;4.392;2022-12-19T09:46:17;9.10;99.90
43679;DHT22;29279;50.858;4.392;2022-12-19T09:48:48;9.10;99.90
43679;DHT22;29279;50.858;4.392;2022-12-19T09:54:11;9.30;99.90
43679;DHT22;29279;50.858;4.392;2022-12-19T09:56:39;9.20;99.90
43679;DHT22;29279;50.858;4.392;2022-12-19T10:05:17;9.20;99.90
43679;DHT22;29279;50.858;4.392;2022-12-19T10:07:44;9.10;99.90
43679;DHT22;29279;50.858;4.392;2022-12-19T10:10:20;9.20;99.90
43679;DHT22;29279;50.858;4.392;2022-12-19T10:17:05;9.30;99.90
43679;DHT22;29279;50.858;4.392;2022-12-19T10:30:16;9.50;99.90
43679;DHT22;29279;50.858;4.392;2022-12-19T10:35:18;9.70;99.90
43679;DHT22;29279;50.858;4.392;2022-12-19T10:37:54;9.80;99.90
43679;DHT22;29279;50.858;4.392;2022-12-19T10:40:36;9.70;99.90
43679;DHT22;29279;50.858;4.392;2022-12-19T10:45:37;9.80;99.90
43679;DHT22;29279;50.858;4.392;2022-12-19T10:48:07;9.90;99.90
43679;DHT22;29279;50.858;4.392;2022-12-19T10:50:35;9.90;99.90
43679;DHT22;29279;50.858;4.392;2022-12-19T11:01:04;10.30;99.90
43679;DHT22;29279;50.858;4.392;2022-12-19T11:03:34;10.30;99.90
43679;DHT22;29279;50.858;4.392;2022-12-19T11:06:02;10.40;99.90
43679;DHT22;29279;50.858;4.392;2022-12-19T11:08:30;10.50;99.90
43679;DHT22;29279;50.858;4.392;2022-12-19T11:11:11;10.70;99.90
43679;DHT22;29279;50.858;4.392;2022-12-19T11:13:39;10.70;99.90
43679;DHT22;29279;50.858;4.392;2022-12-19T11:16:06;10.80;99.90
43679;DHT22;29279;50.858;4.392;2022-12-19T11:23:51;10.90;99.90
43679;DHT22;29279;50.858;4.392;2022-12-19T11:26:34;11.00;99.90
43679;DHT22;29279;50.858;4.392;2022-12-19T11:31:42;11.30;99.90
43679;DHT22;29279;50.858;4.392;2022-12-19T11:34:22;11.20;99.90
43679;DHT22;29279;50.858;4.392;2022-12-19T11:36:59;11.40;99.90
43679;DHT22;29279;50.858;4.392;2022-12-19T11:42:11;11.50;99.90
43679;DHT22;29279;50.858;4.392;2022-12-19T11:44:47;11.40;99.90
43679;DHT22;29279;50.858;4.392;2022-12-19T11:49:54;11.50;99.90
43679;DHT22;29279;50.858;4.392;2022-12-19T11:55:29;11.20;99.90
43679;DHT22;29279;50.858;4.392;2022-12-19T11:58:00;11.20;99.90
43679;DHT22;29279;50.858;4.392;2022-12-19T12:00:25;11.20;99.90
43679;DHT22;29279;50.858;4.392;2022-12-19T12:05:46;11.30;99.90
43679;DHT22;29279;50.858;4.392;2022-12-19T12:11:06;11.30;99.90
43679;DHT22;29279;50.858;4.392;2022-12-19T12:16:43;11.30;99.90
43679;DHT22;29279;50.858;4.392;2022-12-19T12:19:27;11.30;99.90
43679;DHT22;29279;50.858;4.392;2022-12-19T12:25:09;11.30;99.90
43679;DHT22;29279;50.858;4.392;2022-12-19T12:37:00;11.50;99.90
43679;DHT22;29279;50.858;4.392;2022-12-19T12:39:53;11.40;99.90
43679;DHT22;29279;50.858;4.392;2022-12-19T12:45:03;11.50;99.90
43679;DHT22;29279;50.858;4.392;2022-12-19T12:47:33;11.50;99.90
43679;DHT22;29279;50.858;4.392;2022-12-19T12:50:03;11.50;99.90
43679;DHT22;29279;50.858;4.392;2022-12-19T12:52:45;11.50;99.90
43679;DHT22;29279;50.858;4.392;2022-12-19T12:55:33;11.50;99.90
43679;DHT22;29279;50.858;4.392;2022-12-19T12:58:01;11.50;99.90
43679;DHT22;29279;50.858;4.392;2022-12-19T13:00:30;11.40;99.90
43679;DHT22;29279;50.858;4.392;2022-12-19T13:05:51;11.50;99.90
43679;DHT22;29279;50.858;4.392;2022-12-19T13:10:58;11.60;99.90
43679;DHT22;29279;50.858;4.392;2022-12-19T13:13:53;11.50;99.90
43679;DHT22;29279;50.858;4.392;2022-12-19T13:24:57;11.60;99.90
43679;DHT22;29279;50.858;4.392;2022-12-19T13:27:41;11.60;99.90
43679;DHT22;29279;50.858;4.392;2022-12-19T13:30:15;11.70;99.90
43679;DHT22;29279;50.858;4.392;2022-12-19T13:38:21;11.80;99.90
43679;DHT22;29279;50.858;4.392;2022-12-19T13:41:01;11.80;99.90
43679;DHT22;29279;50.858;4.392;2022-12-19T13:43:48;11.80;99.90
43679;DHT22;29279;50.858;4.392;2022-12-19T13:49:06;11.90;99.90
43679;DHT22;29279;50.858;4.392;2022-12-19T13:51:54;12.00;99.90
43679;DHT22;29279;50.858;4.392;2022-12-19T13:54:30;11.90;99.90
43679;DHT22;29279;50.858;4.392;2022-12-19T13:56:59;11.90;99.90
43679;DHT22;29279;50.858;4.392;2022-12-19T13:59:27;11.90;99.90
43679;DHT22;29279;50.858;4.392;2022-12-19T14:02:05;11.90;99.90
43679;DHT22;29279;50.858;4.392;2022-12-19T14:04:32;11.80;99.90
43679;DHT22;29279;50.858;4.392;2022-12-19T14:07:01;11.90;99.90
43679;DHT22;29279;50.858;4.392;2022-12-19T14:09:31;11.80;99.90
43679;DHT22;29279;50.858;4.392;2022-12-19T14:12:01;11.90;99.90
43679;DHT22;29279;50.858;4.392;2022-12-19T14:14:28;11.90;99.90
43679;DHT22;29279;50.858;4.392;2022-12-19T14:17:15;11.90;99.90
43679;DHT22;29279;50.858;4.392;2022-12-19T14:19:44;11.70;99.90
43679;DHT22;29279;50.858;4.392;2022-12-19T14:25:01;11.70;99.90
43679;DHT22;29279;50.858;4.392;2022-12-19T14:30:01;11.70;99.90
43679;DHT22;29279;50.858;4.392;2022-12-19T14:32:27;11.80;99.90
43679;DHT22;29279;50.858;4.392;2022-12-19T14:34:53;11.80;99.90
43679;DHT22;29279;50.858;4.392;2022-12-19T14:37:30;11.90;99.90
43679;DHT22;29279;50.858;4.392;2022-12-19T14:40:23;12.00;99.90
43679;DHT22;29279;50.858;4.392;2022-12-19T14:42:50;11.90;99.90
43679;DHT22;29279;50.858;4.392;2022-12-19T14:45:40;11.90;99.90
43679;DHT22;29279;50.858;4.392;2022-12-19T14:48:31;11.80;99.90
43679;DHT22;29279;50.858;4.392;2022-12-19T14:53:35;11.70;99.90
43679;DHT22;29279;50.858;4.392;2022-12-19T14:56:21;11.70;99.90
43679;DHT22;29279;50.858;4.392;2022-12-19T14:58:56;11.70;99.90
43679;DHT22;29279;50.858;4.392;2022-12-19T15:01:27;11.80;99.90
43679;DHT22;29279;50.858;4.392;2022-12-19T15:04:16;11.70;99.90
43679;DHT22;29279;50.858;4.392;2022-12-19T15:06:43;11.70;99.90
43679;DHT22;29279;50.858;4.392;2022-12-19T15:09:15;11.80;99.90
43679;DHT22;29279;50.858;4.392;2022-12-19T15:11:47;11.70;99.90
43679;DHT22;29279;50.858;4.392;2022-12-19T15:14:47;11.70;99.90
43679;DHT22;29279;50.858;4.392;2022-12-19T15:17:21;11.90;99.90
43679;DHT22;29279;50.858;4.392;2022-12-19T15:19:49;11.90;99.90
43679;DHT22;29279;50.858;4.392;2022-12-19T15:22:15;11.90;99.90
43679;DHT22;29279;50.858;4.392;2022-12-19T15:24:41;11.90;99.90
43679;DHT22;29279;50.858;4.392;2022-12-19T15:27:16;11.90;99.90
43679;DHT22;29279;50.858;4.392;2022-12-19T15:29:43;11.90;99.90
43679;DHT22;29279;50.858;4.392;2022-12-19T15:32:12;11.80;99.90
43679;DHT22;29279;50.858;4.392;2022-12-19T15:34:39;11.80;99.90
43679;DHT22;29279;50.858;4.392;2022-12-19T15:37:09;11.80;99.90
43679;DHT22;29279;50.858;4.392;2022-12-19T15:39:35;11.70;99.90
43679;DHT22;29279;50.858;4.392;2022-12-19T15:42:01;11.80;99.90
43679;DHT22;29279;50.858;4.392;2022-12-19T15:44:35;11.80;99.90
43679;DHT22;29279;50.858;4.392;2022-12-19T15:47:04;11.80;99.90
43679;DHT22;29279;50.858;4.392;2022-12-19T15:49:30;11.80;99.90
43679;DHT22;29279;50.858;4.392;2022-12-19T15:51:57;11.80;99.90
43679;DHT22;29279;50.858;4.392;2022-12-19T15:54:23;11.80;99.90
43679;DHT22;29279;50.858;4.392;2022-12-19T15:56:54;11.70;99.90
43679;DHT22;29279;50.858;4.392;2022-12-19T15:59:36;11.60;99.90
43679;DHT22;29279;50.858;4.392;2022-12-19T16:02:17;11.60;99.90
43679;DHT22;29279;50.858;4.392;2022-12-19T16:04:44;11.70;99.90
43679;DHT22;29279;50.858;4.392;2022-12-19T16:07:19;11.70;99.90
43679;DHT22;29279;50.858;4.392;2022-12-19T16:09:45;11.70;99.90
43679;DHT22;29279;50.858;4.392;2022-12-19T16:12:19;11.80;99.90
43679;DHT22;29279;50.858;4.392;2022-12-19T16:14:51;11.80;99.90
43679;DHT22;29279;50.858;4.392;2022-12-19T16:17:20;11.80;99.90
43679;DHT22;29279;50.858;4.392;2022-12-19T16:19:48;11.80;99.90
43679;DHT22;29279;50.858;4.392;2022-12-19T16:22:25;11.70;99.90
43679;DHT22;29279;50.858;4.392;2022-12-19T16:24:52;11.70;99.90
43679;DHT22;29279;50.858;4.392;2022-12-19T16:27:26;11.80;99.90
43679;DHT22;29279;50.858;4.392;2022-12-19T16:29:53;11.70;99.90
43679;DHT22;29279;50.858;4.392;2022-12-19T16:32:20;11.60;99.90
43679;DHT22;29279;50.858;4.392;2022-12-19T16:34:48;11.80;99.90
43679;DHT22;29279;50.858;4.392;2022-12-19T16:37:15;11.70;99.90
43679;DHT22;29279;50.858;4.392;2022-12-19T16:39:40;11.80;99.90
43679;DHT22;29279;50.858;4.392;2022-12-19T16:42:14;11.80;99.90
43679;DHT22;29279;50.858;4.392;2022-12-19T16:44:41;11.70;99.90
43679;DHT22;29279;50.858;4.392;2022-12-19T16:47:13;11.80;99.90
43679;DHT22;29279;50.858;4.392;2022-12-19T16:49:39;11.80;99.90
43679;DHT22;29279;50.858;4.392;2022-12-19T16:52:05;11.80;99.90
43679;DHT22;29279;50.858;4.392;2022-12-19T16:54:31;11.80;99.90
43679;DHT22;29279;50.858;4.392;2022-12-19T16:56:56;11.80;99.90
43679;DHT22;29279;50.858;4.392;2022-12-19T16:59:36;11.80;99.90
43679;DHT22;29279;50.858;4.392;2022-12-19T17:05:08;12.00;99.90
43679;DHT22;29279;50.858;4.392;2022-12-19T17:07:38;12.00;99.90
43679;DHT22;29279;50.858;4.392;2022-12-19T17:10:04;12.10;99.90
43679;DHT22;29279;50.858;4.392;2022-12-19T17:12:30;12.10;99.90
43679;DHT22;29279;50.858;4.392;2022-12-19T17:14:56;12.20;99.90
43679;DHT22;29279;50.858;4.392;2022-12-19T17:17:22;12.30;99.90
43679;DHT22;29279;50.858;4.392;2022-12-19T17:19:49;12.30;99.90
43679;DHT22;29279;50.858;4.392;2022-12-19T17:22:17;12.20;99.90
43679;DHT22;29279;50.858;4.392;2022-12-19T17:24:47;12.30;99.90
43679;DHT22;29279;50.858;4.392;2022-12-19T17:27:13;12.20;99.90
43679;DHT22;29279;50.858;4.392;2022-12-19T17:29:41;12.10;99.90
43679;DHT22;29279;50.858;4.392;2022-12-19T17:32:14;12.10;99.90
43679;DHT22;29279;50.858;4.392;2022-12-19T17:34:40;12.20;99.90
43679;DHT22;29279;50.858;4.392;2022-12-19T17:37:08;12.10;99.90
43679;DHT22;29279;50.858;4.392;2022-12-19T17:39:35;12.10;99.90
43679;DHT22;29279;50.858;4.392;2022-12-19T17:42:22;12.10;99.90
43679;DHT22;29279;50.858;4.392;2022-12-19T17:44:48;12.20;99.90
43679;DHT22;29279;50.858;4.392;2022-12-19T17:47:14;12.20;99.90
43679;DHT22;29279;50.858;4.392;2022-12-19T17:49:41;12.20;99.90
43679;DHT22;29279;50.858;4.392;2022-12-19T17:52:13;12.20;99.90
43679;DHT22;29279;50.858;4.392;2022-12-19T17:54:39;12.00;99.90
43679;DHT22;29279;50.858;4.392;2022-12-19T17:57:12;12.10;99.90
43679;DHT22;29279;50.858;4.392;2022-12-19T17:59:38;12.00;99.90
43679;DHT22;29279;50.858;4.392;2022-12-19T18:04:41;12.10;99.90
43679;DHT22;29279;50.858;4.392;2022-12-19T18:07:15;11.80;99.90
43679;DHT22;29279;50.858;4.392;2022-12-19T18:09:41;11.70;99.90
43679;DHT22;29279;50.858;4.392;2022-12-19T18:12:07;11.60;99.90
43679;DHT22;29279;50.858;4.392;2022-12-19T18:14:33;11.60;99.90
43679;DHT22;29279;50.858;4.392;2022-12-19T18:16:59;11.60;99.90
43679;DHT22;29279;50.858;4.392;2022-12-19T18:19:29;11.50;99.90
43679;DHT22;29279;50.858;4.392;2022-12-19T18:21:55;11.70;99.90
43679;DHT22;29279;50.858;4.392;2022-12-19T18:24:21;11.60;99.90
43679;DHT22;29279;50.858;4.392;2022-12-19T18:26:47;11.70;99.90
43679;DHT22;29279;50.858;4.392;2022-12-19T18:29:13;11.70;99.90
43679;DHT22;29279;50.858;4.392;2022-12-19T18:31:39;11.70;99.90
43679;DHT22;29279;50.858;4.392;2022-12-19T18:34:05;11.60;99.90
43679;DHT22;29279;50.858;4.392;2022-12-19T18:36:38;11.60;99.90
43679;DHT22;29279;50.858;4.392;2022-12-19T18:39:14;11.70;99.90
43679;DHT22;29279;50.858;4.392;2022-12-19T18:41:42;11.70;99.90
43679;DHT22;29279;50.858;4.392;2022-12-19T18:44:07;11.70;99.90
43679;DHT22;29279;50.858;4.392;2022-12-19T18:46:33;11.80;99.90
43679;DHT22;29279;50.858;4.392;2022-12-19T18:49:00;11.80;99.90
43679;DHT22;29279;50.858;4.392;2022-12-19T18:51:25;11.80;99.90
43679;DHT22;29279;50.858;4.392;2022-12-19T18:53:51;11.80;99.90
43679;DHT22;29279;50.858;4.392;2022-12-19T18:56:17;11.80;99.90
43679;DHT22;29279;50.858;4.392;2022-12-19T18:58:43;11.70;99.90